sensor_id;sensor_type;location;lat;lon;timestamp;P1;durP1;ratioP1;P2;durP2;ratioP2
1436;SDS011;712;51.026;13.792;2022-11-15T00:01:00;60.70;;;55.13;;
1436;SDS011;712;51.026;13.792;2022-11-15T00:03:26;57.40;;;52.00;;
1436;SDS011;712;51.026;13.792;2022-11-15T00:05:52;60.67;;;55.33;;
1436;SDS011;712;51.026;13.792;2022-11-15T00:08:17;60.37;;;54.80;;
1436;SDS011;712;51.026;13.792;2022-11-15T00:10:42;63.23;;;57.60;;
1436;SDS011;712;51.026;13.792;2022-11-15T00:13:08;63.40;;;57.30;;
1436;SDS011;712;51.026;13.792;2022-11-15T00:15:34;58.60;;;52.90;;
1436;SDS011;712;51.026;13.792;2022-11-15T00:17:59;59.37;;;53.93;;
1436;SDS011;712;51.026;13.792;2022-11-15T00:20:25;59.33;;;53.00;;
1436;SDS011;712;51.026;13.792;2022-11-15T00:22:50;59.00;;;53.00;;
1436;SDS011;712;51.026;13.792;2022-11-15T00:25:15;62.57;;;56.77;;
1436;SDS011;712;51.026;13.792;2022-11-15T00:27:40;63.40;;;57.70;;
1436;SDS011;712;51.026;13.792;2022-11-15T00:30:05;61.77;;;56.00;;
1436;SDS011;712;51.026;13.792;2022-11-15T00:32:31;58.40;;;52.50;;
1436;SDS011;712;51.026;13.792;2022-11-15T00:34:56;66.17;;;60.17;;
1436;SDS011;712;51.026;13.792;2022-11-15T00:37:21;62.92;;;57.13;;
1436;SDS011;712;51.026;13.792;2022-11-15T00:39:46;63.50;;;57.50;;
1436;SDS011;712;51.026;13.792;2022-11-15T00:42:12;64.63;;;58.60;;
1436;SDS011;712;51.026;13.792;2022-11-15T00:44:37;65.87;;;59.53;;
1436;SDS011;712;51.026;13.792;2022-11-15T00:47:02;60.83;;;54.50;;
1436;SDS011;712;51.026;13.792;2022-11-15T00:49:27;66.97;;;60.67;;
1436;SDS011;712;51.026;13.792;2022-11-15T00:51:52;64.63;;;58.87;;
1436;SDS011;712;51.026;13.792;2022-11-15T00:54:17;61.17;;;54.73;;
1436;SDS011;712;51.026;13.792;2022-11-15T00:56:42;62.13;;;55.38;;
1436;SDS011;712;51.026;13.792;2022-11-15T00:59:08;60.30;;;53.80;;
1436;SDS011;712;51.026;13.792;2022-11-15T01:01:33;65.80;;;59.40;;
1436;SDS011;712;51.026;13.792;2022-11-15T01:03:58;60.33;;;54.03;;
1436;SDS011;712;51.026;13.792;2022-11-15T01:06:23;64.53;;;58.50;;
1436;SDS011;712;51.026;13.792;2022-11-15T01:08:48;63.90;;;57.90;;
1436;SDS011;712;51.026;13.792;2022-11-15T01:11:13;64.23;;;58.17;;
1436;SDS011;712;51.026;13.792;2022-11-15T01:13:39;60.57;;;54.03;;
1436;SDS011;712;51.026;13.792;2022-11-15T01:16:08;61.97;;;55.47;;
1436;SDS011;712;51.026;13.792;2022-11-15T01:18:34;61.53;;;54.00;;
1436;SDS011;712;51.026;13.792;2022-11-15T01:20:59;68.03;;;61.60;;
1436;SDS011;712;51.026;13.792;2022-11-15T01:23:24;69.20;;;62.70;;
1436;SDS011;712;51.026;13.792;2022-11-15T01:25:49;70.70;;;63.90;;
1436;SDS011;712;51.026;13.792;2022-11-15T01:28:14;69.83;;;63.30;;
1436;SDS011;712;51.026;13.792;2022-11-15T01:30:40;60.77;;;54.37;;
1436;SDS011;712;51.026;13.792;2022-11-15T01:33:05;64.93;;;57.93;;
1436;SDS011;712;51.026;13.792;2022-11-15T01:35:30;71.97;;;65.13;;
1436;SDS011;712;51.026;13.792;2022-11-15T01:37:55;70.83;;;64.03;;
1436;SDS011;712;51.026;13.792;2022-11-15T01:40:20;73.00;;;66.23;;
1436;SDS011;712;51.026;13.792;2022-11-15T01:42:46;72.60;;;65.80;;
1436;SDS011;712;51.026;13.792;2022-11-15T01:45:13;67.47;;;61.07;;
1436;SDS011;712;51.026;13.792;2022-11-15T01:47:39;63.60;;;56.80;;
1436;SDS011;712;51.026;13.792;2022-11-15T01:50:06;67.23;;;60.67;;
1436;SDS011;712;51.026;13.792;2022-11-15T01:52:33;69.87;;;63.07;;
1436;SDS011;712;51.026;13.792;2022-11-15T01:57:24;70.93;;;64.43;;
1436;SDS011;712;51.026;13.792;2022-11-15T01:59:49;68.83;;;62.23;;
1436;SDS011;712;51.026;13.792;2022-11-15T02:02:15;67.93;;;61.60;;
1436;SDS011;712;51.026;13.792;2022-11-15T02:04:41;70.33;;;63.60;;
1436;SDS011;712;51.026;13.792;2022-11-15T02:07:07;69.30;;;62.70;;
1436;SDS011;712;51.026;13.792;2022-11-15T02:09:35;67.80;;;61.40;;
1436;SDS011;712;51.026;13.792;2022-11-15T02:12:00;67.87;;;61.07;;
1436;SDS011;712;51.026;13.792;2022-11-15T02:14:25;68.90;;;62.13;;
1436;SDS011;712;51.026;13.792;2022-11-15T02:16:59;67.07;;;60.57;;
1436;SDS011;712;51.026;13.792;2022-11-15T02:24:37;67.20;;;60.67;;
1436;SDS011;712;51.026;13.792;2022-11-15T02:27:11;68.57;;;61.87;;
1436;SDS011;712;51.026;13.792;2022-11-15T02:29:49;66.57;;;60.27;;
1436;SDS011;712;51.026;13.792;2022-11-15T02:37:58;65.03;;;58.77;;
1436;SDS011;712;51.026;13.792;2022-11-15T02:42:56;64.43;;;58.43;;
1436;SDS011;712;51.026;13.792;2022-11-15T02:45:42;63.83;;;57.57;;
1436;SDS011;712;51.026;13.792;2022-11-15T02:48:09;63.90;;;57.93;;
1436;SDS011;712;51.026;13.792;2022-11-15T02:50:35;62.10;;;56.07;;
1436;SDS011;712;51.026;13.792;2022-11-15T02:53:01;65.13;;;59.03;;
1436;SDS011;712;51.026;13.792;2022-11-15T02:57:52;65.93;;;59.53;;
1436;SDS011;712;51.026;13.792;2022-11-15T03:00:21;62.43;;;56.40;;
1436;SDS011;712;51.026;13.792;2022-11-15T03:02:51;62.13;;;56.20;;
1436;SDS011;712;51.026;13.792;2022-11-15T03:05:25;63.40;;;57.30;;
1436;SDS011;712;51.026;13.792;2022-11-15T03:10:32;62.75;;;56.75;;
1436;SDS011;712;51.026;13.792;2022-11-15T03:15:36;60.60;;;54.70;;
1436;SDS011;712;51.026;13.792;2022-11-15T03:18:03;60.53;;;54.57;;
1436;SDS011;712;51.026;13.792;2022-11-15T03:20:29;64.27;;;57.67;;
1436;SDS011;712;51.026;13.792;2022-11-15T03:22:56;63.73;;;57.53;;
1436;SDS011;712;51.026;13.792;2022-11-15T03:25:24;61.83;;;55.50;;
1436;SDS011;712;51.026;13.792;2022-11-15T03:27:51;63.00;;;56.87;;
1436;SDS011;712;51.026;13.792;2022-11-15T03:30:17;60.43;;;54.60;;
1436;SDS011;712;51.026;13.792;2022-11-15T03:32:58;64.27;;;57.87;;
1436;SDS011;712;51.026;13.792;2022-11-15T03:35:25;62.93;;;56.30;;
1436;SDS011;712;51.026;13.792;2022-11-15T03:37:54;60.67;;;54.70;;
1436;SDS011;712;51.026;13.792;2022-11-15T03:40:24;59.23;;;53.40;;
1436;SDS011;712;51.026;13.792;2022-11-15T03:45:28;62.47;;;56.40;;
1436;SDS011;712;51.026;13.792;2022-11-15T03:48:07;56.93;;;50.63;;
1436;SDS011;712;51.026;13.792;2022-11-15T03:50:35;56.17;;;49.40;;
1436;SDS011;712;51.026;13.792;2022-11-15T03:53:00;62.03;;;55.90;;
1436;SDS011;712;51.026;13.792;2022-11-15T03:55:26;59.80;;;54.00;;
1436;SDS011;712;51.026;13.792;2022-11-15T03:57:52;56.13;;;49.80;;
1436;SDS011;712;51.026;13.792;2022-11-15T04:00:18;60.63;;;54.67;;
1436;SDS011;712;51.026;13.792;2022-11-15T04:02:44;61.67;;;55.33;;
1436;SDS011;712;51.026;13.792;2022-11-15T04:05:09;56.90;;;49.43;;
1436;SDS011;712;51.026;13.792;2022-11-15T04:07:34;53.80;;;47.90;;
1436;SDS011;712;51.026;13.792;2022-11-15T04:09:59;62.17;;;55.90;;
1436;SDS011;712;51.026;13.792;2022-11-15T04:12:38;60.57;;;54.57;;
1436;SDS011;712;51.026;13.792;2022-11-15T04:15:05;55.27;;;49.50;;
1436;SDS011;712;51.026;13.792;2022-11-15T04:20:31;55.67;;;48.33;;
1436;SDS011;712;51.026;13.792;2022-11-15T04:23:22;55.93;;;48.07;;
1436;SDS011;712;51.026;13.792;2022-11-15T04:26:07;59.97;;;54.03;;
1436;SDS011;712;51.026;13.792;2022-11-15T04:28:34;58.70;;;50.37;;
1436;SDS011;712;51.026;13.792;2022-11-15T04:30:59;57.90;;;52.30;;
1436;SDS011;712;51.026;13.792;2022-11-15T04:33:24;54.60;;;47.80;;
1436;SDS011;712;51.026;13.792;2022-11-15T04:35:50;59.03;;;53.00;;
1436;SDS011;712;51.026;13.792;2022-11-15T04:38:34;58.17;;;52.53;;
1436;SDS011;712;51.026;13.792;2022-11-15T04:41:00;51.37;;;45.93;;
1436;SDS011;712;51.026;13.792;2022-11-15T04:43:25;57.73;;;52.03;;
1436;SDS011;712;51.026;13.792;2022-11-15T04:45:50;60.40;;;54.47;;
1436;SDS011;712;51.026;13.792;2022-11-15T04:48:15;54.83;;;48.60;;
1436;SDS011;712;51.026;13.792;2022-11-15T04:50:40;57.53;;;51.30;;
1436;SDS011;712;51.026;13.792;2022-11-15T04:53:06;61.95;;;55.90;;
1436;SDS011;712;51.026;13.792;2022-11-15T04:55:31;58.13;;;51.63;;
1436;SDS011;712;51.026;13.792;2022-11-15T04:57:57;57.80;;;51.80;;
1436;SDS011;712;51.026;13.792;2022-11-15T05:00:22;59.53;;;53.80;;
1436;SDS011;712;51.026;13.792;2022-11-15T05:02:48;56.90;;;50.87;;
1436;SDS011;712;51.026;13.792;2022-11-15T05:05:31;57.43;;;49.67;;
1436;SDS011;712;51.026;13.792;2022-11-15T05:07:56;60.00;;;54.03;;
1436;SDS011;712;51.026;13.792;2022-11-15T05:10:21;59.93;;;54.00;;
1436;SDS011;712;51.026;13.792;2022-11-15T05:12:47;58.87;;;52.93;;
1436;SDS011;712;51.026;13.792;2022-11-15T05:15:12;58.73;;;52.93;;
1436;SDS011;712;51.026;13.792;2022-11-15T05:17:37;54.27;;;48.40;;
1436;SDS011;712;51.026;13.792;2022-11-15T05:20:02;61.70;;;55.60;;
1436;SDS011;712;51.026;13.792;2022-11-15T05:22:28;61.43;;;55.23;;
1436;SDS011;712;51.026;13.792;2022-11-15T05:24:53;60.90;;;55.00;;
1436;SDS011;712;51.026;13.792;2022-11-15T05:27:18;53.17;;;47.47;;
1436;SDS011;712;51.026;13.792;2022-11-15T05:29:43;60.57;;;54.57;;
1436;SDS011;712;51.026;13.792;2022-11-15T05:32:09;60.72;;;54.85;;
1436;SDS011;712;51.026;13.792;2022-11-15T05:34:34;56.43;;;49.23;;
1436;SDS011;712;51.026;13.792;2022-11-15T05:36:59;56.20;;;50.40;;
1436;SDS011;712;51.026;13.792;2022-11-15T05:39:25;60.47;;;54.60;;
1436;SDS011;712;51.026;13.792;2022-11-15T05:41:54;54.60;;;48.70;;
1436;SDS011;712;51.026;13.792;2022-11-15T05:44:21;57.50;;;50.80;;
1436;SDS011;712;51.026;13.792;2022-11-15T05:46:46;57.40;;;51.67;;
1436;SDS011;712;51.026;13.792;2022-11-15T05:49:13;59.20;;;53.27;;
1436;SDS011;712;51.026;13.792;2022-11-15T05:51:41;59.07;;;52.90;;
1436;SDS011;712;51.026;13.792;2022-11-15T05:54:07;55.87;;;49.73;;
1436;SDS011;712;51.026;13.792;2022-11-15T05:56:32;52.80;;;44.93;;
1436;SDS011;712;51.026;13.792;2022-11-15T05:58:57;61.10;;;55.10;;
1436;SDS011;712;51.026;13.792;2022-11-15T06:01:23;53.13;;;46.40;;
1436;SDS011;712;51.026;13.792;2022-11-15T06:03:50;56.27;;;50.77;;
1436;SDS011;712;51.026;13.792;2022-11-15T06:06:15;56.37;;;47.10;;
1436;SDS011;712;51.026;13.792;2022-11-15T06:08:40;61.10;;;54.80;;
1436;SDS011;712;51.026;13.792;2022-11-15T06:11:06;57.80;;;48.83;;
1436;SDS011;712;51.026;13.792;2022-11-15T06:13:31;54.00;;;47.73;;
1436;SDS011;712;51.026;13.792;2022-11-15T06:15:57;59.80;;;53.80;;
1436;SDS011;712;51.026;13.792;2022-11-15T06:18:22;59.03;;;53.23;;
1436;SDS011;712;51.026;13.792;2022-11-15T06:20:47;55.07;;;46.70;;
1436;SDS011;712;51.026;13.792;2022-11-15T06:23:12;53.47;;;47.17;;
1436;SDS011;712;51.026;13.792;2022-11-15T06:25:38;58.40;;;52.60;;
1436;SDS011;712;51.026;13.792;2022-11-15T06:28:03;57.43;;;51.93;;
1436;SDS011;712;51.026;13.792;2022-11-15T06:30:28;51.77;;;46.23;;
1436;SDS011;712;51.026;13.792;2022-11-15T06:33:00;58.73;;;49.33;;
1436;SDS011;712;51.026;13.792;2022-11-15T06:35:26;59.30;;;53.33;;
1436;SDS011;712;51.026;13.792;2022-11-15T06:37:51;55.60;;;47.97;;
1436;SDS011;712;51.026;13.792;2022-11-15T06:40:16;56.95;;;51.20;;
1436;SDS011;712;51.026;13.792;2022-11-15T06:42:42;58.20;;;52.30;;
1436;SDS011;712;51.026;13.792;2022-11-15T06:45:07;60.27;;;48.60;;
1436;SDS011;712;51.026;13.792;2022-11-15T06:47:32;57.13;;;50.97;;
1436;SDS011;712;51.026;13.792;2022-11-15T06:49:57;55.47;;;49.80;;
1436;SDS011;712;51.026;13.792;2022-11-15T06:52:22;54.45;;;48.83;;
1436;SDS011;712;51.026;13.792;2022-11-15T06:54:48;59.07;;;53.07;;
1436;SDS011;712;51.026;13.792;2022-11-15T06:57:13;54.47;;;46.63;;
1436;SDS011;712;51.026;13.792;2022-11-15T06:59:38;58.50;;;52.60;;
1436;SDS011;712;51.026;13.792;2022-11-15T07:02:03;57.30;;;51.50;;
1436;SDS011;712;51.026;13.792;2022-11-15T07:04:28;59.13;;;53.20;;
1436;SDS011;712;51.026;13.792;2022-11-15T07:06:54;55.87;;;50.47;;
1436;SDS011;712;51.026;13.792;2022-11-15T07:09:19;57.93;;;51.80;;
1436;SDS011;712;51.026;13.792;2022-11-15T07:11:44;54.03;;;48.63;;
1436;SDS011;712;51.026;13.792;2022-11-15T07:14:09;51.73;;;46.67;;
1436;SDS011;712;51.026;13.792;2022-11-15T07:16:35;54.30;;;49.03;;
1436;SDS011;712;51.026;13.792;2022-11-15T07:19:00;54.73;;;49.60;;
1436;SDS011;712;51.026;13.792;2022-11-15T07:21:26;54.33;;;49.17;;
1436;SDS011;712;51.026;13.792;2022-11-15T07:23:51;51.90;;;46.57;;
1436;SDS011;712;51.026;13.792;2022-11-15T07:26:16;57.00;;;51.40;;
1436;SDS011;712;51.026;13.792;2022-11-15T07:28:41;58.10;;;52.17;;
1436;SDS011;712;51.026;13.792;2022-11-15T07:31:07;54.57;;;49.10;;
1436;SDS011;712;51.026;13.792;2022-11-15T07:33:33;55.73;;;50.43;;
1436;SDS011;712;51.026;13.792;2022-11-15T07:35:59;55.53;;;50.03;;
1436;SDS011;712;51.026;13.792;2022-11-15T07:38:26;52.50;;;47.50;;
1436;SDS011;712;51.026;13.792;2022-11-15T07:40:58;53.03;;;47.80;;
1436;SDS011;712;51.026;13.792;2022-11-15T07:43:24;53.17;;;47.63;;
1436;SDS011;712;51.026;13.792;2022-11-15T07:45:49;54.80;;;49.20;;
1436;SDS011;712;51.026;13.792;2022-11-15T07:48:15;53.83;;;48.63;;
1436;SDS011;712;51.026;13.792;2022-11-15T07:50:40;52.30;;;47.10;;
1436;SDS011;712;51.026;13.792;2022-11-15T07:53:06;53.10;;;47.60;;
1436;SDS011;712;51.026;13.792;2022-11-15T07:55:31;48.67;;;43.97;;
1436;SDS011;712;51.026;13.792;2022-11-15T07:57:59;51.10;;;46.00;;
1436;SDS011;712;51.026;13.792;2022-11-15T08:00:25;52.93;;;47.83;;
1436;SDS011;712;51.026;13.792;2022-11-15T08:02:50;50.20;;;45.10;;
1436;SDS011;712;51.026;13.792;2022-11-15T08:05:15;49.10;;;44.13;;
1436;SDS011;712;51.026;13.792;2022-11-15T08:07:40;48.73;;;44.10;;
1436;SDS011;712;51.026;13.792;2022-11-15T08:10:06;47.03;;;42.67;;
1436;SDS011;712;51.026;13.792;2022-11-15T08:12:32;46.30;;;41.70;;
1436;SDS011;712;51.026;13.792;2022-11-15T08:14:57;46.97;;;42.30;;
1436;SDS011;712;51.026;13.792;2022-11-15T08:17:23;44.70;;;40.40;;
1436;SDS011;712;51.026;13.792;2022-11-15T08:19:49;46.10;;;42.00;;
1436;SDS011;712;51.026;13.792;2022-11-15T08:22:14;45.37;;;41.17;;
1436;SDS011;712;51.026;13.792;2022-11-15T08:24:39;47.10;;;42.43;;
1436;SDS011;712;51.026;13.792;2022-11-15T08:27:04;45.30;;;41.10;;
1436;SDS011;712;51.026;13.792;2022-11-15T08:29:29;42.77;;;38.67;;
1436;SDS011;712;51.026;13.792;2022-11-15T08:31:55;44.50;;;40.23;;
1436;SDS011;712;51.026;13.792;2022-11-15T08:34:20;44.50;;;40.03;;
1436;SDS011;712;51.026;13.792;2022-11-15T08:36:46;44.57;;;40.23;;
1436;SDS011;712;51.026;13.792;2022-11-15T08:39:11;43.20;;;39.00;;
1436;SDS011;712;51.026;13.792;2022-11-15T08:41:37;43.93;;;39.80;;
1436;SDS011;712;51.026;13.792;2022-11-15T08:44:02;44.40;;;40.10;;
1436;SDS011;712;51.026;13.792;2022-11-15T08:46:27;43.27;;;39.27;;
1436;SDS011;712;51.026;13.792;2022-11-15T08:48:53;42.77;;;38.80;;
1436;SDS011;712;51.026;13.792;2022-11-15T08:51:18;41.17;;;37.10;;
1436;SDS011;712;51.026;13.792;2022-11-15T08:53:43;41.20;;;37.20;;
1436;SDS011;712;51.026;13.792;2022-11-15T08:56:09;42.43;;;38.00;;
1436;SDS011;712;51.026;13.792;2022-11-15T08:58:34;44.23;;;40.03;;
1436;SDS011;712;51.026;13.792;2022-11-15T09:01:00;43.40;;;39.20;;
1436;SDS011;712;51.026;13.792;2022-11-15T09:03:25;43.73;;;39.50;;
1436;SDS011;712;51.026;13.792;2022-11-15T09:06:00;42.53;;;38.37;;
1436;SDS011;712;51.026;13.792;2022-11-15T09:08:25;43.57;;;39.57;;
1436;SDS011;712;51.026;13.792;2022-11-15T09:10:51;43.23;;;39.27;;
1436;SDS011;712;51.026;13.792;2022-11-15T09:13:16;42.43;;;38.40;;
1436;SDS011;712;51.026;13.792;2022-11-15T09:15:41;41.67;;;37.70;;
1436;SDS011;712;51.026;13.792;2022-11-15T09:18:07;42.13;;;38.00;;
1436;SDS011;712;51.026;13.792;2022-11-15T09:20:32;40.97;;;37.30;;
1436;SDS011;712;51.026;13.792;2022-11-15T09:23:01;41.47;;;37.40;;
1436;SDS011;712;51.026;13.792;2022-11-15T09:25:27;39.57;;;35.83;;
1436;SDS011;712;51.026;13.792;2022-11-15T09:27:52;42.77;;;38.60;;
1436;SDS011;712;51.026;13.792;2022-11-15T09:30:17;40.90;;;37.20;;
1436;SDS011;712;51.026;13.792;2022-11-15T09:32:42;42.03;;;38.23;;
1436;SDS011;712;51.026;13.792;2022-11-15T09:35:07;39.67;;;36.00;;
1436;SDS011;712;51.026;13.792;2022-11-15T09:37:33;38.87;;;35.33;;
1436;SDS011;712;51.026;13.792;2022-11-15T09:39:58;40.27;;;36.47;;
1436;SDS011;712;51.026;13.792;2022-11-15T09:42:25;38.47;;;35.07;;
1436;SDS011;712;51.026;13.792;2022-11-15T09:50:14;38.33;;;34.93;;
1436;SDS011;712;51.026;13.792;2022-11-15T09:52:41;35.90;;;32.10;;
1436;SDS011;712;51.026;13.792;2022-11-15T09:55:08;37.13;;;33.67;;
1436;SDS011;712;51.026;13.792;2022-11-15T10:00:04;37.38;;;34.17;;
1436;SDS011;712;51.026;13.792;2022-11-15T10:04:56;36.83;;;33.28;;
1436;SDS011;712;51.026;13.792;2022-11-15T10:09:57;36.30;;;33.13;;
1436;SDS011;712;51.026;13.792;2022-11-15T10:12:24;36.33;;;33.00;;
1436;SDS011;712;51.026;13.792;2022-11-15T10:14:58;35.90;;;32.63;;
1436;SDS011;712;51.026;13.792;2022-11-15T10:17:33;35.63;;;32.53;;
1436;SDS011;712;51.026;13.792;2022-11-15T10:27:28;36.10;;;32.83;;
1436;SDS011;712;51.026;13.792;2022-11-15T10:29:54;36.43;;;32.70;;
1436;SDS011;712;51.026;13.792;2022-11-15T10:32:20;35.87;;;32.63;;
1436;SDS011;712;51.026;13.792;2022-11-15T10:34:46;36.70;;;33.20;;
1436;SDS011;712;51.026;13.792;2022-11-15T10:37:11;34.73;;;31.33;;
1436;SDS011;712;51.026;13.792;2022-11-15T10:39:36;36.13;;;32.53;;
1436;SDS011;712;51.026;13.792;2022-11-15T10:44:45;35.20;;;32.00;;
1436;SDS011;712;51.026;13.792;2022-11-15T10:47:27;35.10;;;31.80;;
1436;SDS011;712;51.026;13.792;2022-11-15T10:49:57;34.90;;;31.60;;
1436;SDS011;712;51.026;13.792;2022-11-15T10:52:22;35.40;;;32.00;;
1436;SDS011;712;51.026;13.792;2022-11-15T10:57:33;36.07;;;32.90;;
1436;SDS011;712;51.026;13.792;2022-11-15T11:00:04;35.07;;;31.97;;
1436;SDS011;712;51.026;13.792;2022-11-15T11:02:36;34.57;;;31.50;;
1436;SDS011;712;51.026;13.792;2022-11-15T11:05:03;33.93;;;31.03;;
1436;SDS011;712;51.026;13.792;2022-11-15T11:07:30;35.30;;;32.00;;
1436;SDS011;712;51.026;13.792;2022-11-15T11:10:00;35.03;;;31.83;;
1436;SDS011;712;51.026;13.792;2022-11-15T11:12:29;34.80;;;31.80;;
1436;SDS011;712;51.026;13.792;2022-11-15T11:14:56;36.23;;;32.97;;
1436;SDS011;712;51.026;13.792;2022-11-15T11:22:17;32.30;;;29.20;;
1436;SDS011;712;51.026;13.792;2022-11-15T11:32:34;31.27;;;28.50;;
1436;SDS011;712;51.026;13.792;2022-11-15T11:35:11;31.67;;;28.67;;
1436;SDS011;712;51.026;13.792;2022-11-15T11:40:37;34.10;;;31.03;;
1436;SDS011;712;51.026;13.792;2022-11-15T11:50:32;31.17;;;28.40;;
1436;SDS011;712;51.026;13.792;2022-11-15T11:53:02;31.67;;;28.87;;
1436;SDS011;712;51.026;13.792;2022-11-15T12:00:58;32.73;;;29.73;;
1436;SDS011;712;51.026;13.792;2022-11-15T12:06:21;32.80;;;29.90;;
1436;SDS011;712;51.026;13.792;2022-11-15T12:09:02;32.77;;;29.87;;
1436;SDS011;712;51.026;13.792;2022-11-15T12:11:32;32.13;;;29.20;;
1436;SDS011;712;51.026;13.792;2022-11-15T12:14:00;31.93;;;29.13;;
1436;SDS011;712;51.026;13.792;2022-11-15T12:16:27;31.63;;;28.93;;
1436;SDS011;712;51.026;13.792;2022-11-15T12:18:54;33.83;;;30.63;;
1436;SDS011;712;51.026;13.792;2022-11-15T12:21:33;32.07;;;29.17;;
1436;SDS011;712;51.026;13.792;2022-11-15T12:24:00;32.87;;;29.93;;
1436;SDS011;712;51.026;13.792;2022-11-15T12:26:31;30.50;;;27.90;;
1436;SDS011;712;51.026;13.792;2022-11-15T12:28:59;30.70;;;28.00;;
1436;SDS011;712;51.026;13.792;2022-11-15T12:33:58;31.80;;;28.67;;
1436;SDS011;712;51.026;13.792;2022-11-15T12:36:35;33.40;;;30.20;;
1436;SDS011;712;51.026;13.792;2022-11-15T12:43:51;31.43;;;28.70;;
1436;SDS011;712;51.026;13.792;2022-11-15T12:48:52;32.53;;;29.67;;
1436;SDS011;712;51.026;13.792;2022-11-15T12:51:19;29.90;;;27.10;;
1436;SDS011;712;51.026;13.792;2022-11-15T12:53:44;31.57;;;28.80;;
1436;SDS011;712;51.026;13.792;2022-11-15T13:11:56;30.93;;;28.23;;
1436;SDS011;712;51.026;13.792;2022-11-15T13:19:47;31.03;;;28.27;;
1436;SDS011;712;51.026;13.792;2022-11-15T13:22:13;32.97;;;30.00;;
1436;SDS011;712;51.026;13.792;2022-11-15T13:24:56;31.47;;;28.87;;
1436;SDS011;712;51.026;13.792;2022-11-15T13:27:22;32.60;;;29.80;;
1436;SDS011;712;51.026;13.792;2022-11-15T13:29:47;32.30;;;29.50;;
1436;SDS011;712;51.026;13.792;2022-11-15T13:32:12;31.80;;;28.90;;
1436;SDS011;712;51.026;13.792;2022-11-15T13:34:38;32.17;;;29.17;;
1436;SDS011;712;51.026;13.792;2022-11-15T13:37:04;33.20;;;30.17;;
1436;SDS011;712;51.026;13.792;2022-11-15T13:39:34;33.90;;;30.60;;
1436;SDS011;712;51.026;13.792;2022-11-15T13:42:02;33.03;;;30.03;;
1436;SDS011;712;51.026;13.792;2022-11-15T13:44:28;31.57;;;28.67;;
1436;SDS011;712;51.026;13.792;2022-11-15T13:47:00;30.93;;;28.13;;
1436;SDS011;712;51.026;13.792;2022-11-15T13:49:30;32.93;;;30.07;;
1436;SDS011;712;51.026;13.792;2022-11-15T13:51:56;32.90;;;29.80;;
1436;SDS011;712;51.026;13.792;2022-11-15T13:54:35;32.23;;;29.33;;
1436;SDS011;712;51.026;13.792;2022-11-15T13:57:02;31.67;;;28.87;;
1436;SDS011;712;51.026;13.792;2022-11-15T13:59:29;34.23;;;31.20;;
1436;SDS011;712;51.026;13.792;2022-11-15T14:01:55;33.50;;;30.43;;
1436;SDS011;712;51.026;13.792;2022-11-15T14:04:22;33.17;;;30.20;;
1436;SDS011;712;51.026;13.792;2022-11-15T14:06:49;33.27;;;30.30;;
1436;SDS011;712;51.026;13.792;2022-11-15T14:11:50;33.77;;;30.63;;
1436;SDS011;712;51.026;13.792;2022-11-15T14:14:15;31.27;;;28.37;;
1436;SDS011;712;51.026;13.792;2022-11-15T14:16:45;35.17;;;31.97;;
1436;SDS011;712;51.026;13.792;2022-11-15T14:19:11;35.40;;;32.30;;
1436;SDS011;712;51.026;13.792;2022-11-15T14:21:37;35.60;;;32.50;;
1436;SDS011;712;51.026;13.792;2022-11-15T14:24:22;32.77;;;29.83;;
1436;SDS011;712;51.026;13.792;2022-11-15T14:26:54;34.43;;;30.80;;
1436;SDS011;712;51.026;13.792;2022-11-15T14:29:26;33.67;;;30.67;;
1436;SDS011;712;51.026;13.792;2022-11-15T14:31:52;34.57;;;31.33;;
1436;SDS011;712;51.026;13.792;2022-11-15T14:34:17;32.83;;;29.93;;
1436;SDS011;712;51.026;13.792;2022-11-15T14:36:43;34.30;;;31.10;;
1436;SDS011;712;51.026;13.792;2022-11-15T14:39:08;36.60;;;33.10;;
1436;SDS011;712;51.026;13.792;2022-11-15T14:41:34;35.90;;;32.60;;
1436;SDS011;712;51.026;13.792;2022-11-15T14:44:02;34.17;;;31.07;;
1436;SDS011;712;51.026;13.792;2022-11-15T14:46:28;34.60;;;31.40;;
1436;SDS011;712;51.026;13.792;2022-11-15T14:48:53;34.95;;;31.58;;
1436;SDS011;712;51.026;13.792;2022-11-15T14:51:19;36.33;;;33.13;;
1436;SDS011;712;51.026;13.792;2022-11-15T14:53:44;35.00;;;31.80;;
1436;SDS011;712;51.026;13.792;2022-11-15T14:56:09;35.93;;;32.73;;
1436;SDS011;712;51.026;13.792;2022-11-15T14:58:35;35.70;;;32.40;;
1436;SDS011;712;51.026;13.792;2022-11-15T15:01:02;34.80;;;31.70;;
1436;SDS011;712;51.026;13.792;2022-11-15T15:03:27;34.37;;;31.27;;
1436;SDS011;712;51.026;13.792;2022-11-15T15:05:52;34.97;;;31.60;;
1436;SDS011;712;51.026;13.792;2022-11-15T15:08:17;33.33;;;30.17;;
1436;SDS011;712;51.026;13.792;2022-11-15T15:10:44;34.50;;;31.37;;
1436;SDS011;712;51.026;13.792;2022-11-15T15:13:16;35.03;;;31.93;;
1436;SDS011;712;51.026;13.792;2022-11-15T15:15:42;35.90;;;32.70;;
1436;SDS011;712;51.026;13.792;2022-11-15T15:18:08;33.47;;;30.47;;
1436;SDS011;712;51.026;13.792;2022-11-15T15:20:34;35.67;;;32.43;;
1436;SDS011;712;51.026;13.792;2022-11-15T15:22:59;37.03;;;33.53;;
1436;SDS011;712;51.026;13.792;2022-11-15T15:25:27;35.13;;;31.93;;
1436;SDS011;712;51.026;13.792;2022-11-15T15:27:53;35.10;;;31.80;;
1436;SDS011;712;51.026;13.792;2022-11-15T15:30:18;37.47;;;34.17;;
1436;SDS011;712;51.026;13.792;2022-11-15T15:32:44;36.70;;;33.27;;
1436;SDS011;712;51.026;13.792;2022-11-15T15:35:11;36.63;;;33.20;;
1436;SDS011;712;51.026;13.792;2022-11-15T15:37:36;35.53;;;31.97;;
1436;SDS011;712;51.026;13.792;2022-11-15T15:40:01;35.90;;;32.40;;
1436;SDS011;712;51.026;13.792;2022-11-15T15:42:27;37.40;;;33.90;;
1436;SDS011;712;51.026;13.792;2022-11-15T15:44:52;38.50;;;34.90;;
1436;SDS011;712;51.026;13.792;2022-11-15T15:47:18;34.83;;;31.20;;
1436;SDS011;712;51.026;13.792;2022-11-15T15:49:44;37.50;;;33.70;;
1436;SDS011;712;51.026;13.792;2022-11-15T15:52:09;36.70;;;32.90;;
1436;SDS011;712;51.026;13.792;2022-11-15T15:54:34;37.10;;;33.50;;
1436;SDS011;712;51.026;13.792;2022-11-15T15:56:59;35.60;;;31.90;;
1436;SDS011;712;51.026;13.792;2022-11-15T15:59:25;35.40;;;31.83;;
1436;SDS011;712;51.026;13.792;2022-11-15T16:01:50;35.00;;;31.40;;
1436;SDS011;712;51.026;13.792;2022-11-15T16:04:15;35.50;;;32.00;;
1436;SDS011;712;51.026;13.792;2022-11-15T16:06:40;33.70;;;30.20;;
1436;SDS011;712;51.026;13.792;2022-11-15T16:09:13;34.17;;;30.40;;
1436;SDS011;712;51.026;13.792;2022-11-15T16:11:38;38.43;;;34.73;;
1436;SDS011;712;51.026;13.792;2022-11-15T16:14:03;35.20;;;31.50;;
1436;SDS011;712;51.026;13.792;2022-11-15T16:16:28;32.43;;;29.10;;
1436;SDS011;712;51.026;13.792;2022-11-15T16:18:54;34.17;;;30.50;;
1436;SDS011;712;51.026;13.792;2022-11-15T16:21:19;33.80;;;30.07;;
1436;SDS011;712;51.026;13.792;2022-11-15T16:23:44;33.30;;;29.90;;
1436;SDS011;712;51.026;13.792;2022-11-15T16:26:42;33.60;;;28.70;;
1436;SDS011;712;51.026;13.792;2022-11-15T16:29:01;33.93;;;30.10;;
1436;SDS011;712;51.026;13.792;2022-11-15T16:31:26;33.80;;;30.20;;
1436;SDS011;712;51.026;13.792;2022-11-15T16:33:51;32.70;;;29.40;;
1436;SDS011;712;51.026;13.792;2022-11-15T16:36:24;34.57;;;30.77;;
1436;SDS011;712;51.026;13.792;2022-11-15T16:38:49;33.27;;;29.67;;
1436;SDS011;712;51.026;13.792;2022-11-15T16:41:15;34.33;;;30.63;;
1436;SDS011;712;51.026;13.792;2022-11-15T16:43:43;32.97;;;29.50;;
1436;SDS011;712;51.026;13.792;2022-11-15T16:46:12;33.50;;;29.70;;